Current Weather

Marechal Rondon

Marechal Rondon, Brazil (SBCY)

Report from: Monday, June 17, 2024 7:00 AM -03
Current time: Monday, June 17, 2024 7:18 AM -03

Nearby weather – Weather history – Daily summaries
Weather forecast

Temperature20.0°C (68.0°F)
Dew point16.0°C (60.8°F)
Winds 7 kts (3.6 m/s, 8.1 mph) Northwest (310°)
Clouds Sky clear
Altimeter29.91 in.Hg (1013 mB)
Relative humidity78 %
Density altitude844 ft. (257 m)
Remarks Ceiling and visibility OK
Flight conditions Visual Meteorological Conditions
Raw dataSBCY 171000Z 31007KT CAVOK 20/16 Q1013
An error has occurred. This application may no longer respond until reloaded. Reload 🗙